Weather at Marathon Kotroni Navy Helicopter Base

Public forecast

Using degrees Celsius for public forecast. Weather courtesy of forecast.io.

Closest aviation weather report (METAR) to Marathon Kotroni Navy Helicopter Base

Closest report is Eleftherios Venizelos International Airport, 12.1 nm (22.4 km) S. Retrieved 2021/04/17 10:20 UTC (28 minutes ago):

LGAV 171020Z 05018KT 9999 FEW030 18/09 Q1010 NOSIG

Closest aviation forecast (TAF) to Marathon Kotroni Navy Helicopter Base

Closest forecast is Eleftherios Venizelos International Airport, 12.1 nm (22.4 km) S. Retrieved 2021/04/17 06:12 UTC (5 hours ago):

TAF TAF LGAV 170500Z 1706/1806 02018KT 9999 SCT018 BKN070 PROB30 TEMPO 1706/1709 5000 RA SCT015 BKN030 BKN070 BECMG 1708/1710 SCT020